Time;durP1;ratioP1;P1;durP2;ratioP2;P2;SDS_P1;SDS_P2;PMS_P1;PMS_P2;Temp;Humidity;BMP_temperature;BMP_pressure;BME280_temperature;BME280_humidity;BME280_pressure;Samples;Min_cycle;Max_cycle;Signal;HPM_P1;HPM_P2
2023/04/24 00:01:46;;;;;;;8.37;5.20;;;;;;;-143.84;65.65;45134.75;4972721;28;20482;-61
2023/04/24 00:04:16;;;;;;;13.30;5.63;;;;;;;-143.84;65.39;45111.91;4972758;28;20987;-61
2023/04/24 00:06:49;;;;;;;15.13;5.30;;;;;;;-143.84;65.59;45111.91;4972719;28;20442;-61
2023/04/24 00:09:16;;;;;;;17.70;5.87;;;;;;;-143.84;65.73;45106.19;4972528;28;20931;-61
2023/04/24 00:11:43;;;;;;;11.63;5.73;;;;;;;-143.84;65.79;45142.38;4979312;28;20868;-61
2023/04/24 00:14:11;;;;;;;23.03;6.30;;;;;;;-143.84;65.70;45111.91;4992013;28;20433;-61
2023/04/24 00:16:38;;;;;;;10.80;5.20;;;;;;;-143.84;66.21;45110.00;4992000;28;20501;-61
2023/04/24 00:19:05;;;;;;;10.40;5.00;;;;;;;-143.84;66.37;45125.22;4991826;28;20481;-61
2023/04/24 00:21:33;;;;;;;16.13;6.00;;;;;;;-143.84;66.71;45140.47;4991698;28;20445;-61
2023/04/24 00:24:02;;;;;;;8.50;5.27;;;;;;;-143.84;66.95;45134.75;4991652;28;20485;-61
2023/04/24 00:26:29;;;;;;;8.50;5.10;;;;;;;-143.84;66.97;45159.50;4992010;28;20810;-61
2023/04/24 00:28:56;;;;;;;8.82;5.15;;;;;;;-143.84;67.26;45129.03;4990946;28;20434;-61
2023/04/24 00:31:23;;;;;;;10.70;5.30;;;;;;;-143.84;66.94;45113.81;4990650;28;20201;-61
2023/04/24 00:33:50;;;;;;;10.65;5.95;;;;;;;-143.84;67.08;45121.44;4990844;28;20444;-61
2023/04/24 00:36:19;;;;;;;7.70;5.10;;;;;;;-143.84;66.81;45121.44;4991286;28;20206;-61
2023/04/24 00:38:46;;;;;;;10.97;5.50;;;;;;;-143.84;66.75;45140.47;4990780;28;20489;-61
2023/04/24 00:41:15;;;;;;;5.33;4.73;;;;;;;-143.84;66.60;45117.63;4991137;28;20445;-61
2023/04/24 00:43:42;;;;;;;19.57;5.40;;;;;;;-143.84;66.71;45134.75;4991488;28;20488;-61
2023/04/24 00:46:10;;;;;;;8.57;5.20;;;;;;;-143.84;66.83;45153.81;4991551;28;20947;-61
2023/04/24 00:48:39;;;;;;;8.40;5.07;;;;;;;-143.84;67.02;45121.44;4991590;28;20441;-61
2023/04/24 00:51:07;;;;;;;6.70;5.40;;;;;;;-143.84;66.76;45127.13;4991573;28;20448;-61
2023/04/24 00:53:34;;;;;;;19.80;6.65;;;;;;;-143.84;66.97;45111.91;4991179;28;20963;-61
2023/04/24 00:56:02;;;;;;;10.53;4.93;;;;;;;-143.84;66.73;45115.72;4991304;28;20202;-61
2023/04/24 00:58:31;;;;;;;11.95;5.53;;;;;;;-143.84;66.83;45157.59;4990102;28;20507;-61
2023/04/24 01:01:00;;;;;;;17.83;6.03;;;;;;;-143.84;67.01;45132.84;4990876;28;20208;-61
2023/04/24 01:03:31;;;;;;;9.63;5.37;;;;;;;-143.84;66.99;45142.38;4990986;28;20484;-61
2023/04/24 01:05:59;;;;;;;13.50;4.80;;;;;;;-143.84;67.12;45130.94;4991203;28;20436;-61
2023/04/24 01:08:29;;;;;;;7.40;5.17;;;;;;;-143.84;67.19;45142.38;4991066;28;20480;-61
2023/04/24 01:10:58;;;;;;;5.90;5.40;;;;;;;-143.84;67.26;45134.75;4991000;28;20963;-61
2023/04/24 01:13:25;;;;;;;13.00;6.83;;;;;;;-143.84;67.16;45134.75;4971294;28;21289;-61
2023/04/24 01:15:54;;;;;;;10.17;5.40;;;;;;;-143.84;67.44;45142.38;4971254;28;20460;-61
2023/04/24 01:18:21;;;;;;;8.70;5.40;;;;;;;-143.84;67.50;45119.53;4971479;28;20503;-61
2023/04/24 01:20:52;;;;;;;15.57;6.67;;;;;;;-143.84;67.70;45130.94;4971468;28;20936;-61
2023/04/24 01:23:20;;;;;;;8.63;6.70;;;;;;;-143.84;67.89;45144.28;4971210;28;20493;-61
2023/04/24 01:25:47;;;;;;;13.33;5.63;;;;;;;-143.84;68.02;45121.44;4971327;28;20470;-61
2023/04/24 01:28:15;;;;;;;12.57;5.90;;;;;;;-143.84;68.05;45119.53;4971535;28;20442;-61
2023/04/24 01:30:42;;;;;;;9.63;5.50;;;;;;;-143.84;68.36;45153.81;4971223;28;20556;-61
2023/04/24 01:33:10;;;;;;;10.73;4.80;;;;;;;-143.84;68.34;45119.53;4971073;28;20512;-61
2023/04/24 01:35:37;;;;;;;10.20;5.07;;;;;;;-143.84;68.18;45148.09;4971057;28;20206;-61
2023/04/24 01:38:05;;;;;;;13.07;4.77;;;;;;;-143.84;68.33;45132.84;4971170;28;20445;-61
2023/04/24 01:40:34;;;;;;;13.17;5.13;;;;;;;-143.84;68.35;45119.53;4971060;28;20484;-61
2023/04/24 01:43:01;;;;;;;11.00;5.07;;;;;;;-143.84;68.51;45110.00;4970806;28;20452;-61
2023/04/24 01:45:28;;;;;;;5.50;4.60;;;;;;;-143.84;68.32;45119.53;4970902;28;20504;-61
2023/04/24 01:47:55;;;;;;;5.00;4.57;;;;;;;-143.84;68.28;45125.22;4970707;28;20566;-61
2023/04/24 01:50:22;;;;;;;9.80;4.20;;;;;;;-143.84;68.23;45127.13;4970814;28;20673;-61
2023/04/24 01:52:50;;;;;;;13.10;4.87;;;;;;;-143.84;68.02;45121.44;4970752;28;20446;-61
2023/04/24 01:55:17;;;;;;;15.97;5.33;;;;;;;-143.84;67.87;45132.84;4970674;28;20444;-61
2023/04/24 01:57:45;;;;;;;14.10;5.73;;;;;;;-143.84;68.09;45153.81;4970905;28;20441;-61
2023/04/24 02:00:13;;;;;;;6.63;4.90;;;;;;;-143.84;68.16;45123.34;4970652;28;20461;-61
2023/04/24 02:02:41;;;;;;;7.43;4.83;;;;;;;-143.84;68.34;45144.28;4970628;28;20449;-61
2023/04/24 02:05:09;;;;;;;18.43;6.00;;;;;;;-143.84;68.35;45140.47;4970551;28;20889;-61
2023/04/24 02:07:36;;;;;;;11.80;4.77;;;;;;;-143.84;68.53;45161.41;4970469;28;20456;-61
2023/04/24 02:10:05;;;;;;;9.63;5.43;;;;;;;-143.84;68.44;45140.47;4970029;28;20478;-61
2023/04/24 02:12:32;;;;;;;13.30;5.05;;;;;;;-143.84;68.49;45110.00;4970466;28;20512;-61
2023/04/24 02:15:00;;;;;;;11.37;5.30;;;;;;;-143.84;68.25;45138.56;4970642;28;20660;-61
2023/04/24 02:17:27;;;;;;;9.63;4.57;;;;;;;-143.84;68.44;45127.13;4970587;28;20467;-61
2023/04/24 02:19:55;;;;;;;15.40;4.67;;;;;;;-143.84;68.51;45130.94;4970188;28;20249;-61
2023/04/24 02:22:22;;;;;;;10.83;5.27;;;;;;;-143.84;68.88;45140.47;4970711;28;20442;-61
2023/04/24 02:24:49;;;;;;;9.30;5.13;;;;;;;-143.84;71.08;45125.22;4970468;28;20555;-61
2023/04/24 02:27:16;;;;;;;11.30;5.97;;;;;;;-143.84;74.28;45110.00;4970378;28;20438;-62
2023/04/24 02:29:43;;;;;;;14.30;5.20;;;;;;;-143.84;75.07;45144.28;4970216;28;20442;-62
2023/04/24 02:32:12;;;;;;;11.30;5.80;;;;;;;-143.84;74.75;45121.44;4970481;28;20994;-62
2023/04/24 02:34:39;;;;;;;8.48;5.50;;;;;;;-143.84;74.57;45123.34;4970514;28;20480;-62
2023/04/24 02:37:06;;;;;;;7.10;5.10;;;;;;;-143.84;74.27;45094.78;4970593;28;20210;-62
2023/04/24 02:39:33;;;;;;;6.40;4.70;;;;;;;-143.84;73.81;45119.53;4970058;28;20444;-61
2023/04/24 02:42:01;;;;;;;16.07;5.10;;;;;;;-143.84;73.37;45117.63;4970184;28;20444;-60
2023/04/24 02:44:28;;;;;;;8.97;4.73;;;;;;;-143.84;72.67;45132.84;4969993;28;20487;-61
2023/04/24 02:46:55;;;;;;;9.80;5.70;;;;;;;-143.84;72.37;45115.72;4970278;28;20441;-60
2023/04/24 02:49:24;;;;;;;8.50;5.20;;;;;;;-143.84;72.08;45153.81;4970178;28;20471;-60
2023/04/24 02:51:51;;;;;;;13.40;4.70;;;;;;;-143.84;72.27;45110.00;4970233;28;20959;-60
2023/04/24 02:54:18;;;;;;;14.73;5.10;;;;;;;-143.84;72.07;45129.03;4970076;28;20615;-60
2023/04/24 02:56:45;;;;;;;9.83;5.50;;;;;;;-143.84;71.97;45129.03;4970029;28;20444;-60
2023/04/24 02:59:12;;;;;;;13.67;5.33;;;;;;;-143.84;72.05;45119.53;4970046;28;20443;-60
2023/04/24 03:01:39;;;;;;;13.50;4.82;;;;;;;-143.84;72.05;45129.03;4969882;28;20453;-60
2023/04/24 03:04:06;;;;;;;8.97;5.10;;;;;;;-143.84;72.04;45119.53;4970318;28;20670;-60
2023/04/24 03:06:35;;;;;;;11.03;4.63;;;;;;;-143.84;72.42;45157.59;4970001;28;20449;-60
2023/04/24 03:09:03;;;;;;;10.93;4.83;;;;;;;-143.84;72.58;45102.38;4969974;28;20877;-60
2023/04/24 03:11:30;;;;;;;9.90;5.40;;;;;;;-143.84;73.08;45129.03;4969534;28;20503;-60
2023/04/24 03:13:57;;;;;;;14.83;5.27;;;;;;;-143.84;73.04;45117.63;4969838;28;20444;-60
2023/04/24 03:16:24;;;;;;;21.27;5.40;;;;;;;-143.84;73.76;45113.81;4969736;28;20463;-61
2023/04/24 03:18:51;;;;;;;11.97;6.30;;;;;;;-143.84;75.35;45098.56;4969642;28;20911;-60
2023/04/24 03:21:19;;;;;;;16.10;6.20;;;;;;;-143.84;77.06;45108.09;4962769;28;20462;-60
2023/04/24 03:23:47;;;;;;;20.90;6.07;;;;;;;-143.84;78.19;45117.63;4954178;28;20541;-60
2023/04/24 03:26:14;;;;;;;16.63;6.40;;;;;;;-143.84;78.51;45100.47;4954230;28;20518;-60
2023/04/24 03:28:41;;;;;;;11.50;5.23;;;;;;;-143.84;78.42;45119.53;4954286;28;20431;-60
2023/04/24 03:31:08;;;;;;;7.87;5.80;;;;;;;-143.84;78.66;45090.97;4954053;28;20576;-60
2023/04/24 03:33:35;;;;;;;11.33;5.73;;;;;;;-143.84;78.46;45096.66;4954022;28;20450;-60
2023/04/24 03:36:03;;;;;;;14.37;6.70;;;;;;;-143.84;78.44;45113.81;4954043;28;20480;-60
2023/04/24 03:38:30;;;;;;;7.93;4.83;;;;;;;-143.84;78.15;45104.28;4953979;28;20447;-60
2023/04/24 03:40:58;;;;;;;21.43;4.90;;;;;;;-143.84;78.00;45132.84;4953624;28;20470;-60
2023/04/24 03:43:27;;;;;;;11.03;6.73;;;;;;;-143.84;78.20;45106.19;4953718;28;21126;-59
2023/04/24 03:45:54;;;;;;;13.23;5.10;;;;;;;-143.84;78.67;45104.28;4953784;28;20454;-60
2023/04/24 03:48:21;;;;;;;11.13;6.43;;;;;;;-143.84;78.74;45077.63;4953561;28;20449;-60
2023/04/24 03:50:48;;;;;;;8.93;5.60;;;;;;;-143.84;78.95;45047.16;4953940;28;20441;-60
2023/04/24 03:53:15;;;;;;;10.70;5.60;;;;;;;-143.84;80.34;45085.25;4959922;28;20530;-59
2023/04/24 03:55:42;;;;;;;7.80;5.53;;;;;;;-143.84;77.71;45089.06;4972825;28;20500;-60
2023/04/24 03:58:13;;;;;;;19.70;5.55;;;;;;;-143.84;75.15;45075.72;4973218;28;20520;-60
2023/04/24 04:00:40;;;;;;;9.03;5.93;;;;;;;-143.84;72.30;45117.63;4972938;28;20347;-60
2023/04/24 04:03:07;;;;;;;8.40;5.40;;;;;;;-143.84;70.94;45081.44;4972467;28;20449;-60
2023/04/24 04:05:35;;;;;;;14.70;5.25;;;;;;;-143.84;69.66;45089.06;4972708;28;20493;-60
2023/04/24 04:08:02;;;;;;;20.53;5.03;;;;;;;-143.84;66.92;45096.66;4972928;28;20210;-60
2023/04/24 04:10:29;;;;;;;7.53;4.77;;;;;;;-143.84;66.06;45081.44;4972558;28;20445;-60
2023/04/24 04:12:56;;;;;;;8.80;4.93;;;;;;;-143.84;65.62;45092.88;4973039;28;20471;-60
2023/04/24 04:15:25;;;;;;;12.52;5.50;;;;;;;-143.84;66.60;45098.56;4978261;28;20449;-60
2023/04/24 04:17:52;;;;;;;12.53;4.23;;;;;;;-143.84;65.08;45094.78;4980677;28;20251;-60
2023/04/24 04:20:19;;;;;;;16.97;5.73;;;;;;;-143.84;65.14;45102.38;4983742;28;20441;-60
2023/04/24 04:22:46;;;;;;;9.13;4.50;;;;;;;-143.84;65.42;45073.81;4991754;28;20442;-60
2023/04/24 04:25:13;;;;;;;11.60;4.67;;;;;;;-143.84;66.02;45119.53;4991770;28;20480;-60
2023/04/24 04:27:41;;;;;;;7.73;5.07;;;;;;;-143.84;67.27;45089.06;4992032;28;20448;-60
2023/04/24 04:30:09;;;;;;;9.80;4.80;;;;;;;-143.84;68.00;45098.56;4991892;28;20456;-61
2023/04/24 04:32:38;;;;;;;9.13;5.30;;;;;;;-143.84;67.70;45090.97;4991571;28;20956;-61
2023/04/24 04:35:06;;;;;;;10.23;4.43;;;;;;;-143.84;65.91;45083.34;4991572;28;20934;-61
2023/04/24 04:37:34;;;;;;;7.60;4.77;;;;;;;-143.84;62.30;45106.19;4984825;28;20440;-60
2023/04/24 04:40:05;;;;;;;11.73;5.03;;;;;;;-143.84;62.15;45094.78;4971966;28;20446;-60
2023/04/24 04:42:33;;;;;;;6.37;4.27;;;;;;;-143.84;64.15;45087.16;4972481;28;20879;-61
2023/04/24 04:45:01;;;;;;;18.07;5.30;;;;;;;-143.84;60.55;45100.47;4972262;28;20480;-61
2023/04/24 04:47:31;;;;;;;7.20;4.40;;;;;;;-143.84;59.30;45083.34;4972350;28;20536;-60
2023/04/24 04:50:00;;;;;;;16.03;4.70;;;;;;;-143.84;58.21;45100.47;4971941;28;20965;-60
2023/04/24 04:52:27;;;;;;;12.20;4.37;;;;;;;-143.84;58.25;45081.44;4972273;28;20879;-60
2023/04/24 04:54:54;;;;;;;11.10;4.37;;;;;;;-143.84;57.67;45083.34;4972013;28;20445;-60
2023/04/24 04:57:21;;;;;;;9.73;5.30;;;;;;;-143.84;56.43;45077.63;4971916;28;20474;-60
2023/04/24 04:59:48;;;;;;;6.70;3.93;;;;;;;-143.84;54.84;45070.00;4972325;28;20196;-60
2023/04/24 05:02:15;;;;;;;10.65;4.13;;;;;;;-143.84;56.19;45052.88;4971208;28;21263;-59
2023/04/24 05:04:42;;;;;;;10.70;4.20;;;;;;;-143.84;51.83;45090.97;4970636;28;20717;-60
2023/04/24 05:07:11;;;;;;;5.85;4.55;;;;;;;-143.84;53.06;45092.88;4971080;28;20480;-61
2023/04/24 05:09:38;;;;;;;15.37;5.03;;;;;;;-143.84;51.98;45068.13;4971057;28;20681;-61
2023/04/24 05:12:05;;;;;;;7.15;3.85;;;;;;;-143.84;52.60;45070.00;4970777;28;21209;-60
2023/04/24 05:14:32;;;;;;;9.63;3.93;;;;;;;-143.84;52.86;45098.56;4971228;28;20586;-60
2023/04/24 05:17:00;;;;;;;11.17;4.47;;;;;;;-143.84;54.76;45064.31;4971729;28;20533;-60
2023/04/24 05:19:27;;;;;;;6.07;4.43;;;;;;;-143.84;54.91;45073.81;4971379;28;20482;-60
2023/04/24 05:21:54;;;;;;;17.00;4.70;;;;;;;-143.84;56.44;45087.16;4971579;28;20454;-60
2023/04/24 05:24:22;;;;;;;16.00;5.53;;;;;;;-143.84;55.82;45096.66;4971465;28;20536;-60
2023/04/24 05:26:50;;;;;;;14.88;4.43;;;;;;;-143.84;55.66;45094.78;4971624;28;20450;-60
2023/04/24 05:29:18;;;;;;;14.40;4.20;;;;;;;-143.84;55.04;45077.63;4971570;28;20268;-60
2023/04/24 05:31:46;;;;;;;8.07;4.00;;;;;;;-143.84;56.48;45085.25;4971375;28;20430;-60
2023/04/24 05:34:14;;;;;;;8.47;3.63;;;;;;;-143.84;53.49;45090.97;4971439;28;20441;-60
2023/04/24 05:36:41;;;;;;;7.30;4.70;;;;;;;-143.84;53.51;45083.34;4970927;28;20450;-60
2023/04/24 05:39:08;;;;;;;13.45;3.40;;;;;;;-143.84;54.03;45075.72;4971101;28;21184;-60
2023/04/24 05:41:36;;;;;;;14.60;4.63;;;;;;;-143.84;53.16;45085.25;4971119;28;20265;-60
2023/04/24 05:44:03;;;;;;;22.53;4.37;;;;;;;-143.84;52.61;45066.22;4970354;28;20914;-60
2023/04/24 05:46:30;;;;;;;8.83;4.00;;;;;;;-143.84;54.12;45081.44;4971283;28;20447;-60
2023/04/24 05:48:58;;;;;;;9.53;3.60;;;;;;;-143.84;52.61;45068.13;4971189;28;20492;-60
2023/04/24 05:51:25;;;;;;;10.75;4.18;;;;;;;-143.84;52.66;45058.59;4971441;28;20434;-60
2023/04/24 05:53:52;;;;;;;7.23;3.50;;;;;;;-143.84;51.53;45079.53;4970759;28;20201;-60
2023/04/24 05:56:20;;;;;;;10.53;4.07;;;;;;;-143.84;51.27;45077.63;4970910;28;21024;-60
2023/04/24 05:58:48;;;;;;;15.40;4.47;;;;;;;-143.84;53.55;45075.72;4970856;28;20444;-60
2023/04/24 06:01:15;;;;;;;9.57;3.90;;;;;;;-143.84;52.88;45066.22;4970916;28;20496;-60
2023/04/24 06:03:43;;;;;;;7.73;4.17;;;;;;;-143.84;54.37;45068.13;4970729;28;20965;-60
2023/04/24 06:06:10;;;;;;;8.03;3.77;;;;;;;-143.84;52.67;45077.63;4970476;28;20543;-60
2023/04/24 06:08:37;;;;;;;6.67;3.67;;;;;;;-143.84;53.78;45077.63;4970505;28;20438;-60
2023/04/24 06:11:04;;;;;;;13.43;3.60;;;;;;;-143.84;52.05;45068.13;4970736;28;20947;-60
2023/04/24 06:13:31;;;;;;;14.00;4.40;;;;;;;-143.84;53.84;45094.78;4970561;28;20447;-60
2023/04/24 06:16:00;;;;;;;12.85;4.15;;;;;;;-143.84;50.29;45085.25;4970427;28;21271;-60
2023/04/24 06:18:27;;;;;;;7.13;3.90;;;;;;;-143.84;50.55;45071.91;4970237;28;20242;-60
2023/04/24 06:20:55;;;;;;;5.18;3.55;;;;;;;-143.84;53.15;45085.25;4970290;28;20501;-60
2023/04/24 06:23:22;;;;;;;24.63;5.33;;;;;;;-143.84;51.67;45052.88;4970545;28;20572;-60
2023/04/24 06:25:49;;;;;;;9.10;3.40;;;;;;;-143.84;52.08;45071.91;4970266;28;20496;-59
2023/04/24 06:28:16;;;;;;;15.30;3.80;;;;;;;-143.84;49.70;45083.34;4970605;28;20806;-59
2023/04/24 06:30:44;;;;;;;7.80;4.55;;;;;;;-143.84;48.81;45083.34;4969999;28;20436;-59
2023/04/24 06:33:12;;;;;;;10.65;4.20;;;;;;;-143.84;50.46;45090.97;4970075;28;20200;-59
2023/04/24 06:35:40;;;;;;;8.10;4.57;;;;;;;-143.84;49.04;45083.34;4970394;28;20199;-59
2023/04/24 06:38:07;;;;;;;12.03;4.80;;;;;;;-143.84;52.74;45085.25;4970219;28;20443;-59
2023/04/24 06:40:34;;;;;;;8.43;3.83;;;;;;;-143.84;52.95;45064.31;4970109;28;20445;-59
2023/04/24 06:43:02;;;;;;;21.67;3.27;;;;;;;-143.84;50.53;45066.22;4970410;28;20905;-59
2023/04/24 06:45:29;;;;;;;5.33;3.73;;;;;;;-143.84;51.36;45052.88;4970001;28;20491;-59
2023/04/24 06:47:57;;;;;;;16.10;4.20;;;;;;;-143.84;50.82;45096.66;4970018;28;20457;-59
2023/04/24 06:50:25;;;;;;;21.23;4.27;;;;;;;-143.84;49.65;45075.72;4969961;28;20539;-59
2023/04/24 06:52:52;;;;;;;9.80;4.07;;;;;;;-143.84;52.07;45083.34;4969948;28;20450;-59
2023/04/24 06:55:20;;;;;;;15.13;3.87;;;;;;;-143.84;52.46;45098.56;4971387;28;21012;-59
2023/04/24 06:57:47;;;;;;;17.90;4.03;;;;;;;-143.84;50.76;45094.78;4974272;28;20449;-59
2023/04/24 07:00:15;;;;;;;9.33;3.57;;;;;;;-143.84;52.39;45068.13;4974138;28;20952;-59
2023/04/24 07:02:42;;;;;;;8.30;3.50;;;;;;;-143.84;51.21;45085.25;4973793;28;20441;-59
2023/04/24 07:05:09;;;;;;;10.17;4.47;;;;;;;-143.84;49.47;45066.22;4973819;28;20543;-59
2023/04/24 07:07:39;;;;;;;7.53;4.20;;;;;;;-143.84;54.49;45075.72;4973769;28;20470;-59
2023/04/24 07:10:08;;;;;;;13.43;3.80;;;;;;;-143.84;52.84;45073.81;4973802;28;20485;-59
2023/04/24 07:12:35;;;;;;;7.30;3.63;;;;;;;-143.84;50.81;45075.72;4973719;28;21316;-59
2023/04/24 07:15:03;;;;;;;10.40;4.43;;;;;;;-143.84;52.56;45060.50;4973532;28;20489;-59
2023/04/24 07:17:30;;;;;;;7.57;4.30;;;;;;;-143.84;51.56;45073.81;4973487;28;20453;-59
2023/04/24 07:19:57;;;;;;;19.97;4.50;;;;;;;-143.84;51.37;45079.53;4973310;28;20990;-59
2023/04/24 07:22:24;;;;;;;15.32;4.07;;;;;;;-143.84;51.76;45087.16;4973458;28;20440;-59
2023/04/24 07:24:53;;;;;;;11.25;3.95;;;;;;;-143.84;53.84;45073.81;4973402;28;20267;-59
2023/04/24 07:27:20;;;;;;;17.00;5.00;;;;;;;-143.84;54.57;45085.25;4973579;28;20240;-59
2023/04/24 07:29:47;;;;;;;7.83;4.90;;;;;;;-143.84;54.83;45060.50;4973532;28;20440;-59
2023/04/24 07:32:14;;;;;;;7.53;4.00;;;;;;;-143.84;55.54;45073.81;4973252;28;20443;-59
2023/04/24 07:34:41;;;;;;;14.27;4.68;;;;;;;-143.84;57.08;45083.34;4973401;28;20449;-59
2023/04/24 07:37:08;;;;;;;12.13;4.53;;;;;;;-143.84;58.53;45081.44;4973307;28;20202;-59
2023/04/24 07:39:35;;;;;;;9.97;4.23;;;;;;;-143.84;57.62;45081.44;4973101;28;20446;-59
2023/04/24 07:42:04;;;;;;;13.23;5.40;;;;;;;-143.84;57.85;45087.16;4973430;28;20452;-59
2023/04/24 07:44:32;;;;;;;9.98;4.53;;;;;;;-143.84;56.81;45077.63;4973324;28;20974;-59
2023/04/24 07:46:59;;;;;;;14.18;4.65;;;;;;;-143.84;55.82;45064.31;4972917;28;20711;-59
2023/04/24 07:49:27;;;;;;;6.87;3.93;;;;;;;-143.84;58.37;45090.97;4973263;28;20648;-59
2023/04/24 07:51:54;;;;;;;6.53;3.97;;;;;;;-143.84;57.02;45096.66;4972969;28;20453;-59
2023/04/24 07:54:22;;;;;;;11.60;4.70;;;;;;;-143.84;59.35;45054.78;4972983;28;20525;-59
2023/04/24 07:56:49;;;;;;;5.63;4.00;;;;;;;-143.84;59.04;45085.25;4973074;28;20449;-59
2023/04/24 07:59:18;;;;;;;10.77;5.40;;;;;;;-143.84;60.82;45058.59;4972878;28;20496;-59
2023/04/24 08:01:45;;;;;;;6.93;3.83;;;;;;;-143.84;62.71;45068.13;4972849;28;21003;-59
2023/04/24 08:04:12;;;;;;;7.23;3.90;;;;;;;-143.84;58.29;45079.53;4973082;28;20446;-59
2023/04/24 08:06:39;;;;;;;9.50;4.73;;;;;;;-143.84;59.09;45079.53;4972272;28;21058;-59
2023/04/24 08:09:06;;;;;;;6.60;4.37;;;;;;;-143.84;59.60;45087.16;4972667;28;20494;-59
2023/04/24 08:11:33;;;;;;;17.43;4.90;;;;;;;-143.84;61.75;45071.91;4972815;28;20438;-59
2023/04/24 08:14:01;;;;;;;6.93;3.65;;;;;;;-143.84;60.67;45094.78;4972608;28;20477;-59
2023/04/24 08:16:29;;;;;;;13.30;4.33;;;;;;;-143.84;61.76;45083.34;4972732;28;20206;-59
2023/04/24 08:18:56;;;;;;;10.53;4.00;;;;;;;-143.84;61.56;45090.97;4972385;28;20486;-59
2023/04/24 08:21:23;;;;;;;6.93;4.60;;;;;;;-143.84;60.89;45104.28;4972394;28;20437;-59
2023/04/24 08:23:51;;;;;;;9.90;5.03;;;;;;;-143.84;65.96;45070.00;4972346;28;20460;-59
2023/04/24 08:26:18;;;;;;;11.17;4.07;;;;;;;-143.84;62.01;45089.06;4972539;28;21099;-59
2023/04/24 08:28:46;;;;;;;13.10;4.28;;;;;;;-143.84;62.42;45081.44;4972311;28;21164;-59
2023/04/24 08:31:13;;;;;;;19.53;5.13;;;;;;;-143.84;63.79;45102.38;4972265;28;20211;-59
2023/04/24 08:33:41;;;;;;;14.17;4.53;;;;;;;-143.84;63.42;45087.16;4972354;28;20445;-59
2023/04/24 08:36:09;;;;;;;6.13;4.67;;;;;;;-143.84;65.27;45081.44;4972291;28;20445;-59
2023/04/24 08:38:36;;;;;;;7.10;4.30;;;;;;;-143.84;66.37;45110.00;4972094;28;20448;-59
2023/04/24 08:41:05;;;;;;;11.45;4.45;;;;;;;-143.84;67.04;45087.16;4972175;28;20447;-59
2023/04/24 08:43:34;;;;;;;14.30;4.80;;;;;;;-143.84;65.81;45083.34;4972241;28;20935;-59
2023/04/24 08:46:01;;;;;;;6.38;4.25;;;;;;;-143.84;64.71;45081.44;4971954;28;20227;-59
2023/04/24 08:48:29;;;;;;;8.90;4.40;;;;;;;-143.84;59.11;45089.06;4972130;28;20627;-59
2023/04/24 08:50:58;;;;;;;8.63;4.97;;;;;;;-143.84;61.05;45083.34;4971948;28;20447;-59
2023/04/24 08:53:26;;;;;;;12.75;4.95;;;;;;;-143.84;58.07;45073.81;4972013;28;20303;-59
2023/04/24 08:55:55;;;;;;;12.53;4.50;;;;;;;-143.84;60.01;45073.81;4971914;28;20214;-59
2023/04/24 08:58:23;;;;;;;8.20;4.53;;;;;;;-143.84;60.12;45106.19;4972126;28;20445;-59
2023/04/24 09:00:51;;;;;;;8.50;4.23;;;;;;;-143.84;61.55;45058.59;4971922;28;20868;-59
2023/04/24 09:03:19;;;;;;;12.83;4.93;;;;;;;-143.84;63.06;45096.66;4971897;28;20868;-59
2023/04/24 09:05:49;;;;;;;11.90;4.87;;;;;;;-143.84;62.87;45089.06;4971453;28;21072;-59
2023/04/24 09:08:19;;;;;;;13.93;4.72;;;;;;;-143.84;60.72;45075.72;4971650;28;20956;-59
2023/04/24 09:10:47;;;;;;;13.93;4.00;;;;;;;-143.84;62.26;45083.34;4971518;28;20205;-60
2023/04/24 09:13:15;;;;;;;8.60;4.77;;;;;;;-143.84;61.38;45075.72;4971944;28;20221;-60
2023/04/24 09:15:43;;;;;;;9.23;4.67;;;;;;;-143.84;59.73;45064.31;4971500;28;20452;-60
2023/04/24 09:18:10;;;;;;;12.83;4.20;;;;;;;-143.84;60.75;45085.25;4970827;28;20904;-60
2023/04/24 09:20:58;;;;;;;30.23;4.95;;;;;;;-143.84;59.43;45094.78;4971338;28;20442;-60
2023/04/24 09:23:29;;;;;;;13.27;4.50;;;;;;;-143.84;62.28;45071.91;4971618;28;20669;-60
2023/04/24 09:25:57;;;;;;;14.40;4.63;;;;;;;-143.84;61.96;45070.00;4971519;28;20487;-60
2023/04/24 09:28:27;;;;;;;10.30;4.67;;;;;;;-143.84;61.38;45049.06;4970797;28;20204;-60
2023/04/24 09:31:08;;;;;;;13.60;4.50;;;;;;;-143.84;60.56;45077.63;4970575;28;20472;-59
2023/04/24 09:33:36;;;;;;;7.27;3.93;;;;;;;-143.84;59.90;45056.69;4970941;28;20453;-59
2023/04/24 09:36:03;;;;;;;8.30;4.33;;;;;;;-143.84;59.71;45071.91;4970990;28;20460;-60
2023/04/24 09:38:37;;;;;;;8.70;3.93;;;;;;;-143.84;60.18;45077.63;4970645;28;20446;-59
2023/04/24 09:41:06;;;;;;;7.20;4.07;;;;;;;-143.84;62.01;45071.91;4971212;28;20442;-59
2023/04/24 09:43:34;;;;;;;6.90;3.80;;;;;;;-143.84;59.38;45079.53;4970863;28;20508;-60
2023/04/24 09:46:06;;;;;;;10.10;4.53;;;;;;;-143.84;60.38;45083.34;4970973;28;20479;-59
2023/04/24 09:48:34;;;;;;;7.13;4.07;;;;;;;-143.84;61.16;45062.41;4970933;28;20445;-59
2023/04/24 09:51:03;;;;;;;13.50;5.00;;;;;;;-143.84;62.94;45071.91;4970841;28;20449;-59
2023/04/24 09:53:31;;;;;;;8.47;4.10;;;;;;;-143.84;63.28;45060.50;4971007;28;20476;-59
2023/04/24 09:56:03;;;;;;;11.63;5.20;;;;;;;-143.84;64.08;45062.41;4970874;28;20501;-59
2023/04/24 09:58:31;;;;;;;8.77;4.80;;;;;;;-143.84;62.77;45071.91;4970805;28;20446;-59
2023/04/24 10:00:58;;;;;;;9.33;3.90;;;;;;;-143.84;62.33;45104.28;4970741;28;20486;-59
2023/04/24 10:03:27;;;;;;;10.77;5.70;;;;;;;-143.84;62.91;45100.47;4971062;28;20467;-59
2023/04/24 10:05:55;;;;;;;14.60;5.30;;;;;;;-143.84;67.13;45085.25;4970717;28;20489;-59
2023/04/24 10:08:23;;;;;;;27.27;5.13;;;;;;;-143.84;65.65;45062.41;4970516;28;20446;-59
2023/04/24 10:10:50;;;;;;;11.17;4.83;;;;;;;-143.84;62.89;45098.56;4970307;28;20964;-59
2023/04/24 10:13:18;;;;;;;9.77;4.80;;;;;;;-143.84;65.42;45092.88;4970645;28;20441;-59
2023/04/24 10:15:48;;;;;;;14.30;5.10;;;;;;;-143.84;65.93;45087.16;4970464;28;20483;-59
2023/04/24 10:18:17;;;;;;;15.00;4.77;;;;;;;-143.84;66.16;45077.63;4970468;28;21091;-59
2023/04/24 10:20:44;;;;;;;10.77;4.23;;;;;;;-143.84;63.67;45098.56;4970655;28;20530;-59
2023/04/24 10:23:14;;;;;;;8.10;4.43;;;;;;;-143.84;65.62;45102.38;4970520;28;20504;-59
2023/04/24 10:25:41;;;;;;;9.35;4.00;;;;;;;-143.84;64.70;45089.06;4970053;28;20446;-59
2023/04/24 10:28:09;;;;;;;11.17;4.47;;;;;;;-143.84;64.18;45064.31;4970376;28;20202;-59
2023/04/24 10:30:38;;;;;;;13.53;4.67;;;;;;;-143.84;64.19;45104.28;4970021;28;20442;-59
2023/04/24 10:33:06;;;;;;;15.40;4.60;;;;;;;-143.84;67.85;45077.63;4970521;28;21292;-59
2023/04/24 10:35:35;;;;;;;11.80;5.40;;;;;;;-143.84;64.48;45096.66;4970558;28;20881;-59
2023/04/24 10:38:06;;;;;;;16.92;5.65;;;;;;;-143.84;63.11;45100.47;4970272;28;20497;-59
2023/04/24 10:40:35;;;;;;;8.37;5.30;;;;;;;-143.84;63.98;45077.63;4970052;28;20198;-59
2023/04/24 10:43:05;;;;;;;17.90;5.03;;;;;;;-143.84;66.81;45071.91;4970300;28;20925;-59
2023/04/24 10:45:33;;;;;;;10.17;5.70;;;;;;;-143.84;68.34;45104.28;4970269;28;20527;-59
2023/04/24 10:48:03;;;;;;;15.33;5.40;;;;;;;-143.84;69.69;45081.44;4970274;28;20486;-59
2023/04/24 10:50:44;;;;;;;15.33;4.77;;;;;;;-143.84;68.01;45106.19;4970091;28;20437;-59
2023/04/24 10:53:14;;;;;;;13.10;5.63;;;;;;;-143.84;67.44;45098.56;4970404;28;20492;-59
2023/04/24 10:55:44;;;;;;;19.53;5.20;;;;;;;-143.84;70.81;45077.63;4970082;28;20448;-59
2023/04/24 10:58:11;;;;;;;6.73;4.93;;;;;;;-143.84;69.06;45087.16;4970065;28;20440;-59
2023/04/24 11:00:39;;;;;;;9.93;5.27;;;;;;;-143.84;72.24;45071.91;4969885;28;20765;-59
2023/04/24 11:03:23;;;;;;;11.73;6.00;;;;;;;-143.84;69.22;45083.34;4970231;28;20529;-59
2023/04/24 11:05:52;;;;;;;11.07;5.03;;;;;;;-143.84;68.63;45108.09;4970075;28;20516;-59
2023/04/24 11:08:28;;;;;;;18.23;5.73;;;;;;;-143.84;69.35;45119.53;4970027;28;20492;-59
2023/04/24 11:11:04;;;;;;;12.13;5.70;;;;;;;-143.84;71.82;45079.53;4970120;28;20962;-59
2023/04/24 11:14:06;;;;;;;14.00;4.70;;;;;;;-143.84;69.43;45081.44;4969963;28;20454;-59
2023/04/24 11:16:35;;;;;;;14.27;5.63;;;;;;;-143.84;70.20;45083.34;4967946;28;20469;-59